createdAt,value
2023-02-09T00:01:07.993Z,51.57
2023-02-09T00:03:36.430Z,52.50
2023-02-09T00:06:05.569Z,50.37
2023-02-09T00:08:36.447Z,51.40
2023-02-09T00:11:13.576Z,51.43
2023-02-09T00:13:40.700Z,54.40
2023-02-09T00:16:07.560Z,51.27
2023-02-09T00:18:34.752Z,50.80
2023-02-09T00:21:03.120Z,57.70
2023-02-09T00:23:32.900Z,51.23
2023-02-09T00:26:06.425Z,48.73
2023-02-09T00:28:33.990Z,54.27
2023-02-09T00:31:09.397Z,53.77
2023-02-09T00:33:39.648Z,51.67
2023-02-09T00:36:11.860Z,53.10
2023-02-09T00:38:39.906Z,54.27
2023-02-09T00:41:07.567Z,52.27
2023-02-09T00:43:34.792Z,49.60
2023-02-09T00:46:01.850Z,46.57
2023-02-09T00:48:29.280Z,51.20
2023-02-09T00:50:58.578Z,47.63
2023-02-09T00:53:26.506Z,49.23
2023-02-09T00:55:56.888Z,46.03
2023-02-09T00:58:23.966Z,50.20
2023-02-09T01:00:50.977Z,47.00
2023-02-09T01:03:18.215Z,45.17
2023-02-09T01:05:45.084Z,44.80
2023-02-09T01:08:12.285Z,43.60
2023-02-09T01:10:39.675Z,41.07
2023-02-09T01:13:06.956Z,41.27
2023-02-09T01:15:33.806Z,43.57
2023-02-09T01:18:00.912Z,41.10
2023-02-09T01:20:27.901Z,40.00
2023-02-09T01:22:55.258Z,42.33
2023-02-09T01:25:22.094Z,41.17
2023-02-09T01:27:49.444Z,41.57
2023-02-09T01:30:17.165Z,42.10
2023-02-09T01:32:44.363Z,39.73
2023-02-09T01:35:11.447Z,41.20
2023-02-09T01:37:38.670Z,43.93
2023-02-09T01:40:07.120Z,42.93
2023-02-09T01:42:35.488Z,42.57
2023-02-09T01:45:17.723Z,42.20
2023-02-09T01:47:49.511Z,44.23
2023-02-09T01:50:17.574Z,43.77
2023-02-09T01:52:46.812Z,43.73
2023-02-09T01:55:17.554Z,40.73
2023-02-09T01:57:58.726Z,39.97
2023-02-09T02:00:26.088Z,41.53
2023-02-09T02:02:57.757Z,42.27
2023-02-09T02:05:26.062Z,40.03
2023-02-09T02:08:18.172Z,37.63
2023-02-09T02:10:45.956Z,38.90
2023-02-09T02:13:13.366Z,39.00
2023-02-09T02:16:01.886Z,36.87
2023-02-09T02:18:38.730Z,36.50
2023-02-09T02:21:30.548Z,33.67
2023-02-09T02:24:21.104Z,35.50
2023-02-09T02:26:54.024Z,35.33
2023-02-09T02:29:49.229Z,37.37
2023-02-09T02:32:44.882Z,38.57
2023-02-09T02:35:33.357Z,37.27
2023-02-09T02:38:14.823Z,38.27
2023-02-09T02:41:08.248Z,40.83
2023-02-09T02:44:01.600Z,39.77
2023-02-09T02:46:40.901Z,38.67
2023-02-09T02:49:19.748Z,37.87
2023-02-09T03:40:15.760Z,36.77
2023-02-09T03:42:42.836Z,37.53
2023-02-09T03:45:09.718Z,42.10
2023-02-09T03:47:36.856Z,39.93
2023-02-09T03:50:06.711Z,39.23
2023-02-09T03:52:33.937Z,36.83
2023-02-09T03:55:01.632Z,39.57
2023-02-09T03:57:29.488Z,38.47
2023-02-09T03:59:56.414Z,37.63
2023-02-09T04:02:23.461Z,36.10
2023-02-09T04:04:50.404Z,36.60
2023-02-09T04:07:17.597Z,36.33
2023-02-09T04:09:44.357Z,36.67
2023-02-09T04:12:11.407Z,35.00
2023-02-09T04:14:38.138Z,34.57
2023-02-09T04:17:05.220Z,34.70
2023-02-09T04:19:31.980Z,35.17
2023-02-09T04:21:59.078Z,34.43
2023-02-09T04:24:28.944Z,35.37
2023-02-09T04:26:56.024Z,42.33
2023-02-09T04:29:22.776Z,47.43
2023-02-09T04:31:49.820Z,44.77
2023-02-09T04:34:17.425Z,43.63
2023-02-09T04:36:44.502Z,40.90
2023-02-09T04:39:11.430Z,38.97
2023-02-09T04:41:38.449Z,41.57
2023-02-09T04:44:05.293Z,41.77
2023-02-09T04:46:32.420Z,39.20
2023-02-09T04:48:59.164Z,39.17
2023-02-09T04:51:26.365Z,39.03
2023-02-09T04:53:53.100Z,40.27
2023-02-09T04:56:20.136Z,39.67
2023-02-09T04:59:05.225Z,40.27
2023-02-09T05:01:32.234Z,44.37
2023-02-09T05:03:59.127Z,43.23
2023-02-09T05:06:26.282Z,43.90
2023-02-09T05:08:53.120Z,41.23
2023-02-09T05:11:20.157Z,40.27
2023-02-09T05:13:46.898Z,38.77
2023-02-09T05:16:17.698Z,38.50
2023-02-09T05:18:44.799Z,39.13
2023-02-09T05:21:14.194Z,41.27
2023-02-09T05:23:41.446Z,40.40
2023-02-09T05:26:08.954Z,42.60
2023-02-09T05:28:35.692Z,41.60
2023-02-09T05:31:02.953Z,45.27
2023-02-09T05:33:29.666Z,43.17
2023-02-09T05:35:56.749Z,45.67
2023-02-09T05:38:24.196Z,45.93
2023-02-09T05:40:51.680Z,43.97
2023-02-09T05:43:18.664Z,45.83
2023-02-09T05:45:46.656Z,45.20
2023-02-09T05:48:13.988Z,43.23
2023-02-09T05:50:41.077Z,45.33
2023-02-09T05:53:08.824Z,44.90
2023-02-09T05:55:35.991Z,44.37
2023-02-09T05:58:03.071Z,46.37
2023-02-09T06:00:30.458Z,46.33
2023-02-09T06:02:58.495Z,46.87
2023-02-09T06:05:26.862Z,47.13
2023-02-09T06:07:54.215Z,45.17
2023-02-09T06:10:22.001Z,61.30
2023-02-09T06:12:48.786Z,55.30
2023-02-09T06:15:16.421Z,48.33
2023-02-09T06:17:43.852Z,48.60
2023-02-09T06:20:11.560Z,47.67
2023-02-09T06:22:38.258Z,50.53
2023-02-09T06:25:05.568Z,47.83
2023-02-09T06:27:32.424Z,46.97
2023-02-09T06:29:59.471Z,42.70
2023-02-09T06:32:26.327Z,45.73
2023-02-09T06:34:53.349Z,48.13
2023-02-09T06:37:20.077Z,47.33
2023-02-09T06:39:47.125Z,44.20
2023-02-09T06:42:13.834Z,48.90
2023-02-09T06:44:40.890Z,48.70
2023-02-09T06:47:07.680Z,46.90
2023-02-09T06:49:34.813Z,49.03
2023-02-09T06:52:01.958Z,48.20
2023-02-09T06:54:29.337Z,48.37
2023-02-09T06:56:56.357Z,47.83
2023-02-09T06:59:23.568Z,50.97
2023-02-09T07:01:55.027Z,49.87
2023-02-09T07:04:22.845Z,46.97
2023-02-09T07:06:49.614Z,47.93
2023-02-09T07:09:16.750Z,43.37
2023-02-09T07:11:43.857Z,44.30
2023-02-09T07:14:10.943Z,44.37
2023-02-09T07:16:37.734Z,44.17
2023-02-09T07:19:04.745Z,42.73
2023-02-09T07:21:31.561Z,42.07
2023-02-09T07:23:58.828Z,40.50
2023-02-09T07:26:25.601Z,43.07
2023-02-09T07:28:52.650Z,41.23
2023-02-09T07:31:19.652Z,43.93
2023-02-09T07:33:47.177Z,41.13
2023-02-09T07:36:16.086Z,38.20
2023-02-09T07:38:43.896Z,40.63
2023-02-09T07:41:25.286Z,37.73
2023-02-09T07:43:53.306Z,37.80
2023-02-09T07:46:22.171Z,50.00
2023-02-09T07:48:49.885Z,46.10
2023-02-09T07:51:19.907Z,40.27
2023-02-09T07:53:47.800Z,38.43
2023-02-09T07:56:14.625Z,39.53
2023-02-09T07:58:41.668Z,37.97
2023-02-09T08:01:11.071Z,39.23
2023-02-09T08:03:40.280Z,39.37
2023-02-09T08:06:40.952Z,38.70
2023-02-09T08:09:10.987Z,38.80
2023-02-09T08:11:45.615Z,36.70
2023-02-09T08:14:21.026Z,35.40
2023-02-09T08:16:51.224Z,36.33
2023-02-09T08:19:22.830Z,38.13
2023-02-09T08:21:50.838Z,35.63
2023-02-09T08:24:20.480Z,34.93
2023-02-09T08:26:47.260Z,37.17
2023-02-09T08:29:14.274Z,34.37
2023-02-09T08:31:41.177Z,35.03
2023-02-09T08:34:08.266Z,35.13
2023-02-09T08:36:37.608Z,33.87
2023-02-09T08:39:05.700Z,35.00
2023-02-09T08:41:33.563Z,33.70
2023-02-09T08:44:00.797Z,36.00
2023-02-09T08:46:27.744Z,33.83
2023-02-09T08:48:55.108Z,35.27
2023-02-09T08:51:21.906Z,34.57
2023-02-09T08:53:52.124Z,34.23
2023-02-09T08:56:20.818Z,33.47
2023-02-09T08:58:48.337Z,33.83
2023-02-09T09:01:15.566Z,33.43
2023-02-09T09:03:42.980Z,35.73
2023-02-09T09:06:11.987Z,33.97
2023-02-09T09:08:39.806Z,34.67
2023-02-09T09:11:07.387Z,35.70
2023-02-09T09:13:34.410Z,35.43
2023-02-09T09:16:03.143Z,37.40
2023-02-09T09:18:32.118Z,36.27
2023-02-09T09:20:58.899Z,35.97
2023-02-09T09:23:25.937Z,34.17
2023-02-09T09:25:52.801Z,35.20
2023-02-09T09:28:19.837Z,34.20
2023-02-09T09:30:46.660Z,36.13
2023-02-09T09:33:13.679Z,35.43
2023-02-09T09:35:40.514Z,38.63
2023-02-09T09:38:07.710Z,36.43
2023-02-09T09:40:37.227Z,36.03
2023-02-09T09:43:20.802Z,36.60
2023-02-09T09:45:48.285Z,35.73
2023-02-09T09:48:24.218Z,36.10
2023-02-09T09:50:54.552Z,36.73
2023-02-09T09:53:31.768Z,36.07
2023-02-09T09:56:03.197Z,36.70
2023-02-09T09:58:32.591Z,37.00
2023-02-09T10:00:59.527Z,37.03
2023-02-09T10:03:26.895Z,37.50
2023-02-09T10:06:01.262Z,40.43
2023-02-09T10:08:42.906Z,37.33
2023-02-09T10:11:11.969Z,37.47
2023-02-09T10:13:44.736Z,36.33
2023-02-09T10:16:34.996Z,37.80
2023-02-09T10:19:05.285Z,37.13
2023-02-09T10:21:36.294Z,39.43
2023-02-09T10:24:23.728Z,37.67
2023-02-09T10:27:23.112Z,36.13
2023-02-09T10:29:50.184Z,35.23
2023-02-09T10:32:20.411Z,36.37
2023-02-09T10:34:53.296Z,38.33
2023-02-09T10:37:22.707Z,36.80
2023-02-09T10:39:59.186Z,38.63
2023-02-09T10:42:40.843Z,39.83
2023-02-09T10:45:25.302Z,35.73
2023-02-09T10:48:01.110Z,39.20
2023-02-09T10:50:29.004Z,40.33
2023-02-09T10:52:59.390Z,40.57
2023-02-09T10:55:28.520Z,41.47
2023-02-09T10:58:10.738Z,38.63
2023-02-09T11:00:57.826Z,39.80
2023-02-09T11:03:25.459Z,39.87
2023-02-09T11:06:02.230Z,39.33
2023-02-09T11:08:37.181Z,38.97
2023-02-09T11:11:15.994Z,38.20
2023-02-09T11:13:42.746Z,38.00
2023-02-09T11:16:15.406Z,40.20
2023-02-09T11:18:46.489Z,40.67
2023-02-09T11:21:29.187Z,38.20
2023-02-09T11:23:59.868Z,39.30
2023-02-09T11:26:38.690Z,39.47
2023-02-09T11:29:39.373Z,40.50
2023-02-09T11:32:17.009Z,39.73
2023-02-09T11:35:09.028Z,38.37
2023-02-09T11:38:01.650Z,42.33
2023-02-09T11:40:39.833Z,38.77
2023-02-09T11:43:32.238Z,41.27
2023-02-09T11:46:10.808Z,39.03
2023-02-09T11:48:49.302Z,41.43
2023-02-09T11:51:26.234Z,42.90
2023-02-09T11:53:59.578Z,38.73
2023-02-09T11:56:28.362Z,39.57
2023-02-09T11:59:21.782Z,36.97
2023-02-09T12:02:23.616Z,36.53
2023-02-09T12:04:57.011Z,39.43
2023-02-09T12:07:33.172Z,38.90
2023-02-09T12:10:24.332Z,39.53
2023-02-09T12:12:56.431Z,37.17
2023-02-09T12:15:29.039Z,39.97
2023-02-09T12:18:02.644Z,38.67
2023-02-09T12:20:41.548Z,40.07
2023-02-09T12:23:17.453Z,40.40
2023-02-09T12:26:01.223Z,40.23
2023-02-09T12:28:28.308Z,37.17
2023-02-09T12:30:59.914Z,35.13
2023-02-09T12:33:26.784Z,43.13
2023-02-09T12:36:02.994Z,37.07
2023-02-09T12:38:54.469Z,36.87
2023-02-09T12:41:24.506Z,34.67
2023-02-09T12:44:06.139Z,35.70
2023-02-09T12:46:33.272Z,35.10
2023-02-09T12:49:19.995Z,34.00
2023-02-09T12:51:53.374Z,32.90
2023-02-09T12:54:35.004Z,32.27
2023-02-09T12:57:20.607Z,37.97
2023-02-09T12:59:50.272Z,34.87
2023-02-09T13:02:42.908Z,39.43
2023-02-09T13:05:15.138Z,34.47
2023-02-09T13:07:56.155Z,36.40
2023-02-09T13:10:42.135Z,35.17
2023-02-09T13:13:12.208Z,33.93
2023-02-09T13:15:57.539Z,34.37
2023-02-09T13:18:33.543Z,34.27
2023-02-09T13:21:12.471Z,34.10
2023-02-09T13:24:03.473Z,35.90
2023-02-09T13:26:35.404Z,33.57
2023-02-09T13:29:20.433Z,34.53
2023-02-09T13:32:09.654Z,36.33
2023-02-09T13:35:35.187Z,34.33
2023-02-09T13:38:13.899Z,33.80
2023-02-09T13:40:46.485Z,34.17
2023-02-09T13:43:17.318Z,32.90
2023-02-09T13:45:52.541Z,33.23
2023-02-09T13:48:28.375Z,33.80
2023-02-09T13:50:59.181Z,30.07
2023-02-09T13:53:28.377Z,30.63
2023-02-09T13:55:58.059Z,31.47
2023-02-09T13:58:32.827Z,30.67
2023-02-09T14:01:05.287Z,31.63
2023-02-09T14:03:46.962Z,31.83
2023-02-09T14:06:25.101Z,32.30
2023-02-09T14:08:53.470Z,30.50
2023-02-09T14:11:42.678Z,27.90
2023-02-09T14:14:19.650Z,28.33
2023-02-09T14:16:53.555Z,27.57
2023-02-09T14:19:32.120Z,26.03
2023-02-09T14:21:59.109Z,26.13
2023-02-09T14:24:27.872Z,26.00
2023-02-09T14:27:03.777Z,25.30
2023-02-09T14:29:34.454Z,26.37
2023-02-09T14:32:31.820Z,25.70
2023-02-09T14:35:00.543Z,26.30
2023-02-09T14:37:29.927Z,23.67
2023-02-09T14:40:04.660Z,24.83
2023-02-09T14:42:33.484Z,22.70
2023-02-09T14:45:18.820Z,24.07
2023-02-09T14:47:45.867Z,24.20
2023-02-09T14:50:21.942Z,25.00
2023-02-09T14:52:52.669Z,25.27
2023-02-09T14:55:29.212Z,24.60
2023-02-09T14:57:56.243Z,26.50
2023-02-09T15:00:28.152Z,24.47
2023-02-09T15:02:55.323Z,25.97
2023-02-09T15:05:24.183Z,27.33
2023-02-09T15:07:59.040Z,26.37
2023-02-09T15:10:32.327Z,26.43
2023-02-09T15:13:01.928Z,25.87
2023-02-09T15:15:29.214Z,25.50
2023-02-09T15:17:58.702Z,25.93
2023-02-09T15:20:26.046Z,27.43
2023-02-09T15:22:54.628Z,28.20
2023-02-09T15:25:23.178Z,26.43
2023-02-09T15:27:57.901Z,28.47
2023-02-09T15:30:27.807Z,27.20
2023-02-09T15:32:54.830Z,26.07
2023-02-09T15:35:27.606Z,26.23
2023-02-09T15:37:56.677Z,26.33
2023-02-09T15:40:49.273Z,26.53
2023-02-09T15:43:37.821Z,25.53
2023-02-09T15:46:06.012Z,27.00
2023-02-09T15:48:33.174Z,26.53
2023-02-09T15:51:00.270Z,35.20
2023-02-09T15:53:27.655Z,25.63
2023-02-09T15:55:55.491Z,25.17
2023-02-09T15:58:35.745Z,26.13
2023-02-09T16:01:03.515Z,25.10
2023-02-09T16:03:31.847Z,24.00
2023-02-09T16:06:07.564Z,24.30
2023-02-09T16:08:35.514Z,25.87
2023-02-09T16:11:02.713Z,24.60
2023-02-09T16:13:29.800Z,24.93
2023-02-09T16:16:05.027Z,24.87
2023-02-09T16:18:38.273Z,25.00
2023-02-09T16:21:06.538Z,27.77
2023-02-09T16:23:35.002Z,27.20
2023-02-09T16:26:05.162Z,28.80
2023-02-09T16:28:32.336Z,30.07
2023-02-09T16:30:59.217Z,28.10
2023-02-09T16:33:26.757Z,29.80
2023-02-09T16:35:56.060Z,28.50
2023-02-09T16:38:25.527Z,32.17
2023-02-09T16:40:53.783Z,30.90
2023-02-09T16:43:22.773Z,33.47
2023-02-09T16:46:02.929Z,32.27
2023-02-09T16:48:34.452Z,32.60
2023-02-09T16:51:01.877Z,43.07
2023-02-09T16:53:32.744Z,39.27
2023-02-09T16:56:01.394Z,31.57
2023-02-09T16:58:28.957Z,30.00
2023-02-09T17:00:55.923Z,26.87
2023-02-09T17:03:27.290Z,36.23
2023-02-09T17:05:55.571Z,27.73
2023-02-09T17:08:27.629Z,28.73
2023-02-09T17:10:56.654Z,24.83
2023-02-09T17:13:24.137Z,26.10
2023-02-09T17:15:54.193Z,45.93
2023-02-09T17:18:27.567Z,48.27
2023-02-09T17:21:04.123Z,39.37
2023-02-09T17:23:31.172Z,40.87
2023-02-09T17:25:58.826Z,35.23
2023-02-09T17:28:27.579Z,35.30
2023-02-09T17:31:00.675Z,33.70
2023-02-09T17:33:33.343Z,26.37
2023-02-09T17:38:47.868Z,28.40
2023-02-09T17:41:18.186Z,29.17
2023-02-09T17:43:46.405Z,29.53
2023-02-09T17:46:16.360Z,24.70
2023-02-09T17:48:43.580Z,60.20
2023-02-09T17:51:19.763Z,45.87
2023-02-09T17:53:48.739Z,46.80
2023-02-09T17:56:16.786Z,31.40
2023-02-09T17:58:44.593Z,30.00
2023-02-09T18:01:27.264Z,25.47
2023-02-09T18:04:00.416Z,30.13
2023-02-09T18:06:39.089Z,33.77
2023-02-09T18:09:09.191Z,28.77
2023-02-09T18:11:46.426Z,29.43
2023-02-09T18:14:17.122Z,32.10
2023-02-09T18:16:44.644Z,29.47
2023-02-09T18:19:12.212Z,36.67
2023-02-09T18:21:46.254Z,32.57
2023-02-09T18:24:13.661Z,25.77
2023-02-09T18:26:40.462Z,35.27
2023-02-09T18:29:07.503Z,34.27
2023-02-09T18:31:35.240Z,27.97
2023-02-09T18:34:03.250Z,34.77
2023-02-09T18:36:29.995Z,34.77
2023-02-09T18:38:57.077Z,43.40
2023-02-09T18:41:24.632Z,22.83
2023-02-09T18:43:54.116Z,23.87
2023-02-09T18:46:24.358Z,23.07
2023-02-09T18:48:51.704Z,28.90
2023-02-09T18:51:18.605Z,29.73
2023-02-09T18:53:45.605Z,30.03
2023-02-09T18:56:20.786Z,23.93
2023-02-09T18:58:50.428Z,26.17
2023-02-09T19:01:20.736Z,27.93
2023-02-09T19:03:54.716Z,23.50
2023-02-09T19:06:22.279Z,22.27
2023-02-09T19:08:50.232Z,24.23
2023-02-09T19:11:20.096Z,32.80
2023-02-09T19:14:06.229Z,25.90
2023-02-09T19:16:33.189Z,22.37
2023-02-09T19:19:00.771Z,26.30
2023-02-09T19:21:28.514Z,26.60
2023-02-09T19:23:55.701Z,23.80
2023-02-09T19:26:22.455Z,25.73
2023-02-09T19:28:49.878Z,22.33
2023-02-09T19:31:17.787Z,23.57
2023-02-09T19:33:44.931Z,22.27
2023-02-09T19:36:12.450Z,22.90
2023-02-09T19:38:39.583Z,22.67
2023-02-09T19:41:11.866Z,23.60
2023-02-09T19:43:41.968Z,22.60
2023-02-09T19:46:10.336Z,19.23
2023-02-09T19:48:40.120Z,20.20
2023-02-09T19:51:08.026Z,20.10
2023-02-09T19:53:35.915Z,20.33
2023-02-09T19:56:02.760Z,19.33
2023-02-09T19:58:30.353Z,21.73
2023-02-09T20:00:57.182Z,21.63
2023-02-09T20:03:25.077Z,18.10
2023-02-09T20:05:51.960Z,18.67
2023-02-09T20:08:20.100Z,18.63
2023-02-09T20:10:47.388Z,18.47
2023-02-09T20:13:15.816Z,19.43
2023-02-09T20:15:43.919Z,18.67
2023-02-09T20:18:13.573Z,19.27
2023-02-09T20:20:42.597Z,18.73
2023-02-09T20:23:09.926Z,17.97
2023-02-09T20:25:40.612Z,18.77
2023-02-09T20:28:08.382Z,18.87
2023-02-09T20:30:35.380Z,18.50
2023-02-09T20:33:02.601Z,18.53
2023-02-09T20:35:29.417Z,25.33
2023-02-09T20:37:56.433Z,21.90
2023-02-09T20:40:23.898Z,20.77
2023-02-09T20:43:09.332Z,19.50
2023-02-09T20:45:54.747Z,17.93
2023-02-09T20:48:21.859Z,18.10
2023-02-09T20:50:49.006Z,18.33
2023-02-09T20:53:16.294Z,19.20
2023-02-09T20:55:43.451Z,22.57
2023-02-09T20:58:13.486Z,18.13
2023-02-09T21:00:43.500Z,16.83
2023-02-09T21:03:13.314Z,16.70
2023-02-09T21:05:40.034Z,19.27
2023-02-09T21:08:09.110Z,17.20
2023-02-09T21:10:38.360Z,15.47
2023-02-09T21:13:07.098Z,18.13
2023-02-09T21:15:34.070Z,16.60
2023-02-09T21:18:01.112Z,18.30
2023-02-09T21:20:27.980Z,18.70
2023-02-09T21:22:55.024Z,16.93
2023-02-09T21:25:21.738Z,17.97
2023-02-09T21:27:48.759Z,19.17
2023-02-09T21:30:16.547Z,21.00
2023-02-09T21:32:43.711Z,20.83
2023-02-09T21:35:10.956Z,22.10
2023-02-09T21:37:38.888Z,25.93
2023-02-09T21:40:06.771Z,26.23
2023-02-09T21:42:35.588Z,20.67
2023-02-09T21:45:02.758Z,22.80
2023-02-09T21:47:33.170Z,18.93
2023-02-09T21:50:00.664Z,18.17
2023-02-09T21:52:29.840Z,17.93
2023-02-09T21:54:56.749Z,16.60
2023-02-09T21:57:24.104Z,23.20
2023-02-09T21:59:51.249Z,20.17
2023-02-09T22:02:19.325Z,20.43
2023-02-09T22:04:47.106Z,20.30
2023-02-09T22:07:14.752Z,17.80
2023-02-09T22:09:41.594Z,17.33
2023-02-09T22:12:08.949Z,17.13
2023-02-09T22:14:35.828Z,17.90
2023-02-09T22:17:03.235Z,18.43
2023-02-09T22:19:30.354Z,18.67
2023-02-09T22:21:58.094Z,18.27
2023-02-09T22:24:25.819Z,18.30
2023-02-09T22:26:53.176Z,17.07
2023-02-09T22:29:19.913Z,16.93
2023-02-09T22:31:47.228Z,17.73
2023-02-09T22:34:13.969Z,17.90
2023-02-09T22:36:41.033Z,17.30
2023-02-09T22:39:08.184Z,17.37
2023-02-09T22:41:35.784Z,17.97
2023-02-09T22:44:06.209Z,16.77
2023-02-09T22:46:38.997Z,17.00
2023-02-09T22:49:09.387Z,18.37
2023-02-09T22:51:36.816Z,16.13
2023-02-09T22:54:05.120Z,17.77
2023-02-09T22:56:32.694Z,16.30
2023-02-09T22:59:00.618Z,18.87
2023-02-09T23:01:29.409Z,17.83
2023-02-09T23:03:57.670Z,20.80
2023-02-09T23:06:27.323Z,20.10
2023-02-09T23:08:56.291Z,22.90
2023-02-09T23:11:23.356Z,21.17
2023-02-09T23:13:55.074Z,21.47
2023-02-09T23:16:34.209Z,22.50
2023-02-09T23:19:04.108Z,19.67
2023-02-09T23:21:35.570Z,19.20
2023-02-09T23:24:02.636Z,18.23
2023-02-09T23:26:29.783Z,17.03
2023-02-09T23:29:01.069Z,18.93
2023-02-09T23:31:28.815Z,18.07
2023-02-09T23:33:55.943Z,19.80
2023-02-09T23:36:28.095Z,19.90
2023-02-09T23:38:57.199Z,19.23
2023-02-09T23:41:25.478Z,17.17
2023-02-09T23:43:53.148Z,18.67
2023-02-09T23:46:23.299Z,16.17
2023-02-09T23:48:53.106Z,16.03
2023-02-09T23:51:24.333Z,17.80
2023-02-09T23:53:51.060Z,17.20
2023-02-09T23:56:18.799Z,15.90
2023-02-09T23:58:48.467Z,16.27
